LTFJ/SAW METAR and TAF weather

Enter ICAO airport designator
Station Type Date Time Source
LTFJ METAR 2022/05/26 03:50 UTC NOAA

LTFJ 260350Z 15001KT CAVOK 20/13 Q1017 NOSIG


Station Type Date Time Source
LTFJ Decoded METAR 2022/05/26 03:50 UTC NOAA

Istanbul / Sabiha Gokcen, Turkey (LTFJ) 40-53-55N 029-18-33E
May 25, 2022 - 11:50 PM EDT / 2022.05.26 0350 UTC
Wind: from the SSE (150 degrees) at 1 MPH (1 KT):0
Visibility: greater than 7 mile(s):0
Temperature: 68 F (20 C)
Dew Point: 55 F (13 C)
Relative Humidity: 64%
Pressure (altimeter): 30.03 in. Hg (1017 hPa)
ob: LTFJ 260350Z 15001KT CAVOK 20/13 Q1017 NOSIG
cycle: 4

Station Type Date Time Source
LTFJ TAF 2022/05/25 18:03 UTC NOAA

TAF LTFJ 251640Z 2518/2618 03012KT CAVOK
BECMG 2518/2521 VRB02KT

Example: see airport list